Time;durP1;ratioP1;P1;durP2;ratioP2;P2;SDS_P1;SDS_P2;PMS_P1;PMS_P2;Temp;Humidity;BMP_temperature;BMP_pressure;BME280_temperature;BME280_humidity;BME280_pressure;Samples;Min_cycle;Max_cycle;Signal;HPM_P1;HPM_P2
2022/09/07 00:00:49;;;;;;;18.67;12.90;;;;;;;;;;750006;184;919658;-53
2022/09/07 00:03:15;;;;;;;22.60;14.60;;;;;;;;;;758694;184;911507;-54
2022/09/07 00:05:41;;;;;;;18.00;13.27;;;;;;;;;;756100;184;814128;-54
2022/09/07 00:08:07;;;;;;;18.08;14.15;;;;;;;;;;755666;181;993249;-54
2022/09/07 00:10:32;;;;;;;18.53;13.00;;;;;;;;;;758422;184;919231;-54
2022/09/07 00:12:58;;;;;;;16.70;14.37;;;;;;;;;;751738;185;919355;-54
2022/09/07 00:15:24;;;;;;;15.90;13.80;;;;;;;;;;754654;184;921231;-54
2022/09/07 00:17:51;;;;;;;17.47;14.23;;;;;;;;;;753577;185;919795;-53
2022/09/07 00:20:16;;;;;;;20.80;14.38;;;;;;;;;;749664;182;918909;-54
2022/09/07 00:22:42;;;;;;;21.73;15.07;;;;;;;;;;756013;182;919043;-54
2022/09/07 00:25:08;;;;;;;15.30;13.67;;;;;;;;;;754989;184;916801;-54
2022/09/07 00:27:34;;;;;;;24.73;16.80;;;;;;;;;;758426;184;920945;-54
2022/09/07 00:29:59;;;;;;;20.30;14.63;;;;;;;;;;754688;184;920084;-54
2022/09/07 00:32:25;;;;;;;21.00;15.53;;;;;;;;;;755013;184;881379;-53
2022/09/07 00:34:51;;;;;;;18.60;14.60;;;;;;;;;;755643;185;880410;-54
2022/09/07 00:37:17;;;;;;;16.10;13.47;;;;;;;;;;758531;184;920011;-54
2022/09/07 00:39:43;;;;;;;21.07;14.83;;;;;;;;;;751497;182;919410;-54
2022/09/07 00:42:09;;;;;;;28.23;15.13;;;;;;;;;;752645;184;919104;-54
2022/09/07 00:44:40;;;;;;;28.00;14.03;;;;;;;;;;752649;185;917196;-54
2022/09/07 00:47:06;;;;;;;20.77;15.43;;;;;;;;;;751525;181;925643;-54
2022/09/07 00:49:32;;;;;;;17.53;14.90;;;;;;;;;;752981;184;915850;-54
2022/09/07 00:51:58;;;;;;;17.43;14.80;;;;;;;;;;753845;185;921503;-54
2022/09/07 00:54:24;;;;;;;25.33;16.33;;;;;;;;;;737838;187;917967;-53
2022/09/07 00:56:51;;;;;;;21.53;14.77;;;;;;;;;;737061;188;918243;-54
2022/09/07 00:59:16;;;;;;;20.50;15.87;;;;;;;;;;759821;184;924472;-53
2022/09/07 01:01:41;;;;;;;19.13;15.43;;;;;;;;;;756173;184;918193;-53
2022/09/07 01:04:07;;;;;;;18.60;15.97;;;;;;;;;;750706;182;920887;-54
2022/09/07 01:06:33;;;;;;;18.00;14.70;;;;;;;;;;757436;184;920279;-54
2022/09/07 01:08:59;;;;;;;19.23;15.23;;;;;;;;;;759312;184;915459;-54
2022/09/07 01:11:25;;;;;;;21.67;15.90;;;;;;;;;;750437;184;920586;-54
2022/09/07 01:13:51;;;;;;;19.77;16.13;;;;;;;;;;754366;184;919306;-54
2022/09/07 01:16:17;;;;;;;25.83;15.80;;;;;;;;;;757207;184;917854;-53
2022/09/07 01:18:44;;;;;;;21.83;15.25;;;;;;;;;;740474;188;930116;-54
2022/09/07 01:21:11;;;;;;;27.47;16.57;;;;;;;;;;756214;182;919335;-54
2022/09/07 01:23:52;;;;;;;21.20;15.87;;;;;;;;;;760285;184;819250;-54
2022/09/07 01:26:25;;;;;;;21.00;16.10;;;;;;;;;;751167;185;919356;-55
2022/09/07 01:28:54;;;;;;;20.17;15.77;;;;;;;;;;757266;185;851080;-55
2022/09/07 01:31:23;;;;;;;17.03;14.67;;;;;;;;;;756936;182;918681;-55
2022/09/07 01:33:50;;;;;;;18.98;14.10;;;;;;;;;;746492;185;918431;-55
2022/09/07 01:36:19;;;;;;;23.20;16.53;;;;;;;;;;759537;184;810047;-55
2022/09/07 01:38:46;;;;;;;24.27;17.67;;;;;;;;;;759649;184;918954;-55
2022/09/07 01:41:12;;;;;;;18.30;14.97;;;;;;;;;;747531;185;877837;-56
2022/09/07 01:43:57;;;;;;;22.50;17.40;;;;;;;;;;748979;183;919481;-54
2022/09/07 01:46:23;;;;;;;17.67;14.90;;;;;;;;;;749233;185;920059;-56
2022/09/07 01:48:49;;;;;;;19.80;15.70;;;;;;;;;;760045;184;814327;-55
2022/09/07 01:51:15;;;;;;;21.17;16.57;;;;;;;;;;750573;185;920257;-55
2022/09/07 01:53:41;;;;;;;28.15;15.95;;;;;;;;;;755385;184;919365;-55
2022/09/07 01:56:08;;;;;;;21.77;16.23;;;;;;;;;;755749;184;912761;-55
2022/09/07 01:58:38;;;;;;;23.10;15.47;;;;;;;;;;747591;184;888373;-55
2022/09/07 02:01:04;;;;;;;24.13;15.60;;;;;;;;;;752483;184;920851;-55
2022/09/07 02:03:30;;;;;;;21.70;15.70;;;;;;;;;;749409;184;919244;-55
2022/09/07 02:05:57;;;;;;;20.20;15.83;;;;;;;;;;759660;184;919471;-56
2022/09/07 02:08:24;;;;;;;24.23;17.27;;;;;;;;;;756281;183;916896;-55
2022/09/07 02:10:51;;;;;;;21.27;16.17;;;;;;;;;;752921;184;919994;-55
2022/09/07 02:13:17;;;;;;;24.70;17.57;;;;;;;;;;754567;183;809154;-56
2022/09/07 02:15:59;;;;;;;24.43;17.80;;;;;;;;;;756247;184;917564;-55
2022/09/07 02:18:25;;;;;;;21.27;16.23;;;;;;;;;;758345;184;921880;-55
2022/09/07 02:20:50;;;;;;;21.37;17.13;;;;;;;;;;749164;184;921850;-55
2022/09/07 02:23:16;;;;;;;22.40;17.93;;;;;;;;;;754613;180;923367;-58
2022/09/07 02:25:43;;;;;;;22.93;17.60;;;;;;;;;;761850;182;822767;-55
2022/09/07 02:28:10;;;;;;;22.33;17.87;;;;;;;;;;758546;184;625694;-55
2022/09/07 02:30:35;;;;;;;26.07;17.27;;;;;;;;;;759046;182;629374;-55
2022/09/07 02:33:01;;;;;;;19.50;16.30;;;;;;;;;;760038;184;842431;-55
2022/09/07 02:35:27;;;;;;;24.35;17.70;;;;;;;;;;759336;184;917050;-55
2022/09/07 02:37:53;;;;;;;19.20;15.97;;;;;;;;;;754644;185;627495;-55
2022/09/07 02:40:19;;;;;;;20.90;15.83;;;;;;;;;;757764;184;623367;-56
2022/09/07 02:42:45;;;;;;;31.58;17.42;;;;;;;;;;755936;185;919036;-55
2022/09/07 02:45:11;;;;;;;19.40;15.10;;;;;;;;;;750233;185;919517;-55
2022/09/07 02:47:48;;;;;;;20.20;16.30;;;;;;;;;;750208;185;917933;-56
2022/09/07 02:50:17;;;;;;;21.30;15.47;;;;;;;;;;753073;184;918906;-56
2022/09/07 02:52:50;;;;;;;21.27;16.43;;;;;;;;;;757690;185;920167;-56
2022/09/07 02:55:30;;;;;;;23.27;14.90;;;;;;;;;;753238;182;918831;-56
2022/09/07 02:58:11;;;;;;;20.13;14.43;;;;;;;;;;754161;184;924178;-56
2022/09/07 03:00:38;;;;;;;17.13;13.20;;;;;;;;;;754317;184;925161;-56
2022/09/07 03:03:10;;;;;;;18.03;14.37;;;;;;;;;;750056;185;919551;-56
2022/09/07 03:05:36;;;;;;;17.70;13.70;;;;;;;;;;754024;184;921443;-55
2022/09/07 03:08:03;;;;;;;17.20;13.47;;;;;;;;;;756864;185;887670;-55
2022/09/07 03:10:28;;;;;;;23.00;15.33;;;;;;;;;;758672;184;916183;-58
2022/09/07 03:12:53;;;;;;;17.33;15.38;;;;;;;;;;750013;185;920022;-56
2022/09/07 03:15:19;;;;;;;18.93;14.40;;;;;;;;;;756805;184;919396;-55
2022/09/07 03:17:45;;;;;;;18.03;13.87;;;;;;;;;;753675;184;919785;-56
2022/09/07 03:20:11;;;;;;;22.63;14.37;;;;;;;;;;752878;183;921834;-56
2022/09/07 03:22:37;;;;;;;19.20;13.67;;;;;;;;;;756837;185;919964;-56
2022/09/07 03:25:03;;;;;;;20.83;14.60;;;;;;;;;;751430;185;956134;-57
2022/09/07 03:27:29;;;;;;;23.53;15.40;;;;;;;;;;753820;181;921041;-56
2022/09/07 03:29:55;;;;;;;17.87;13.20;;;;;;;;;;750642;184;918735;-57
2022/09/07 03:32:21;;;;;;;19.13;14.70;;;;;;;;;;762324;184;920120;-56
2022/09/07 03:34:47;;;;;;;16.43;12.87;;;;;;;;;;752792;184;920122;-56
2022/09/07 03:37:13;;;;;;;16.80;12.67;;;;;;;;;;750174;183;920154;-56
2022/09/07 03:39:38;;;;;;;16.83;12.67;;;;;;;;;;759287;184;816239;-55
2022/09/07 03:42:04;;;;;;;21.40;14.30;;;;;;;;;;755704;184;917745;-56
2022/09/07 03:44:30;;;;;;;17.87;13.77;;;;;;;;;;755286;184;918975;-56
2022/09/07 03:46:56;;;;;;;18.23;12.70;;;;;;;;;;759566;184;885451;-56
2022/09/07 03:49:22;;;;;;;22.50;13.47;;;;;;;;;;757676;184;919975;-56
2022/09/07 03:51:48;;;;;;;18.80;13.73;;;;;;;;;;752023;184;919502;-56
2022/09/07 03:54:14;;;;;;;17.13;13.80;;;;;;;;;;752246;184;919852;-56
2022/09/07 03:56:40;;;;;;;25.50;14.30;;;;;;;;;;755432;185;919416;-55
2022/09/07 03:59:05;;;;;;;22.70;14.60;;;;;;;;;;750447;185;921041;-56
2022/09/07 04:01:31;;;;;;;24.53;14.70;;;;;;;;;;755570;184;917326;-56
2022/09/07 04:03:57;;;;;;;16.83;12.30;;;;;;;;;;756502;185;917765;-56
2022/09/07 04:06:23;;;;;;;29.87;15.07;;;;;;;;;;735667;187;916018;-56
2022/09/07 04:08:49;;;;;;;19.50;13.53;;;;;;;;;;747438;185;1023575;-56
2022/09/07 04:11:15;;;;;;;23.93;14.03;;;;;;;;;;758488;184;917134;-56
2022/09/07 04:13:40;;;;;;;23.13;13.30;;;;;;;;;;750750;185;919226;-56
2022/09/07 04:16:09;;;;;;;28.00;13.73;;;;;;;;;;757733;184;823360;-55
2022/09/07 04:18:35;;;;;;;22.80;13.53;;;;;;;;;;750190;182;909265;-56
2022/09/07 04:21:01;;;;;;;23.20;14.57;;;;;;;;;;752525;185;820131;-56
2022/09/07 04:23:26;;;;;;;17.70;14.70;;;;;;;;;;753712;184;919191;-55
2022/09/07 04:25:52;;;;;;;19.80;14.17;;;;;;;;;;753478;184;919626;-56
2022/09/07 04:28:18;;;;;;;18.63;14.97;;;;;;;;;;759644;184;815814;-57
2022/09/07 04:30:44;;;;;;;18.73;14.70;;;;;;;;;;752913;184;932969;-56
2022/09/07 04:33:10;;;;;;;24.70;15.40;;;;;;;;;;754652;184;817535;-56
2022/09/07 04:35:36;;;;;;;19.13;14.17;;;;;;;;;;754091;185;816525;-56
2022/09/07 04:38:02;;;;;;;21.47;13.90;;;;;;;;;;755682;184;918675;-56
2022/09/07 04:40:27;;;;;;;23.15;14.32;;;;;;;;;;751363;183;917096;-56
2022/09/07 04:42:53;;;;;;;18.87;12.97;;;;;;;;;;757637;184;789671;-57
2022/09/07 04:45:19;;;;;;;18.70;13.40;;;;;;;;;;767874;179;919751;-56
2022/09/07 04:47:47;;;;;;;22.57;12.07;;;;;;;;;;750822;184;919858;-56
2022/09/07 04:50:13;;;;;;;19.27;13.20;;;;;;;;;;752896;184;918425;-56
2022/09/07 04:52:39;;;;;;;24.13;13.60;;;;;;;;;;760375;184;919641;-56
2022/09/07 04:55:05;;;;;;;28.70;15.50;;;;;;;;;;754011;184;925228;-56
2022/09/07 04:57:31;;;;;;;19.95;13.77;;;;;;;;;;755014;184;918124;-56
2022/09/07 04:59:57;;;;;;;22.77;14.70;;;;;;;;;;759500;185;918858;-56
2022/09/07 05:02:22;;;;;;;17.93;13.67;;;;;;;;;;753341;185;893128;-56
2022/09/07 05:04:48;;;;;;;23.90;15.63;;;;;;;;;;750637;182;916303;-56
2022/09/07 05:07:14;;;;;;;21.42;14.23;;;;;;;;;;759602;184;917217;-57
2022/09/07 05:09:40;;;;;;;22.00;16.60;;;;;;;;;;766798;182;886659;-57
2022/09/07 05:12:06;;;;;;;26.00;15.07;;;;;;;;;;751776;183;916709;-56
2022/09/07 05:14:32;;;;;;;21.40;14.70;;;;;;;;;;749407;183;914411;-54
2022/09/07 05:16:58;;;;;;;18.20;14.60;;;;;;;;;;756761;181;935122;-56
2022/09/07 05:19:24;;;;;;;23.37;15.73;;;;;;;;;;753706;184;818417;-56
2022/09/07 05:21:49;;;;;;;25.60;16.10;;;;;;;;;;756635;184;620132;-56
2022/09/07 05:24:15;;;;;;;21.47;14.03;;;;;;;;;;753420;185;919450;-56
2022/09/07 05:26:42;;;;;;;21.27;15.33;;;;;;;;;;750792;181;817244;-55
2022/09/07 05:29:07;;;;;;;22.13;16.90;;;;;;;;;;755247;183;903917;-54
2022/09/07 05:31:33;;;;;;;20.50;15.37;;;;;;;;;;760177;184;629172;-56
2022/09/07 05:33:59;;;;;;;25.57;16.40;;;;;;;;;;755703;184;915526;-56
2022/09/07 05:36:25;;;;;;;21.08;15.50;;;;;;;;;;752384;184;910394;-56
2022/09/07 05:38:51;;;;;;;22.70;16.53;;;;;;;;;;756714;184;911385;-56
2022/09/07 05:41:16;;;;;;;23.83;15.83;;;;;;;;;;756748;185;845138;-56
2022/09/07 05:43:42;;;;;;;24.13;17.63;;;;;;;;;;752443;184;918628;-56
2022/09/07 05:46:08;;;;;;;38.13;17.43;;;;;;;;;;753257;182;919843;-57
2022/09/07 05:48:34;;;;;;;29.97;20.30;;;;;;;;;;750601;184;913972;-57
2022/09/07 05:51:00;;;;;;;25.30;17.33;;;;;;;;;;756622;184;918604;-57
2022/09/07 05:53:26;;;;;;;28.73;19.37;;;;;;;;;;755136;184;920291;-57
2022/09/07 05:55:52;;;;;;;29.80;18.70;;;;;;;;;;761712;184;919962;-56
2022/09/07 05:58:17;;;;;;;23.83;18.87;;;;;;;;;;754030;184;919156;-57
2022/09/07 06:00:43;;;;;;;27.00;17.25;;;;;;;;;;748848;181;912833;-57
2022/09/07 06:03:09;;;;;;;26.70;18.27;;;;;;;;;;752204;185;920068;-57
2022/09/07 06:05:35;;;;;;;21.77;16.90;;;;;;;;;;756239;184;914159;-57
2022/09/07 06:08:01;;;;;;;24.07;17.20;;;;;;;;;;756302;184;889195;-56
2022/09/07 06:10:30;;;;;;;25.77;18.20;;;;;;;;;;756761;185;915429;-57
2022/09/07 06:12:53;;;;;;;27.90;17.40;;;;;;;;;;754811;185;909959;-57
2022/09/07 06:15:19;;;;;;;25.63;17.30;;;;;;;;;;748862;183;916195;-56
2022/09/07 06:17:45;;;;;;;24.57;18.20;;;;;;;;;;748068;185;916131;-57
2022/09/07 06:20:10;;;;;;;23.03;16.47;;;;;;;;;;761058;184;917494;-56
2022/09/07 06:22:36;;;;;;;41.20;18.40;;;;;;;;;;754383;185;923678;-57
2022/09/07 06:25:02;;;;;;;23.50;16.50;;;;;;;;;;748760;184;918794;-57
2022/09/07 06:27:28;;;;;;;22.97;17.10;;;;;;;;;;750985;184;919779;-57
2022/09/07 06:29:54;;;;;;;20.30;16.40;;;;;;;;;;765186;181;813111;-56
2022/09/07 06:32:20;;;;;;;25.57;15.13;;;;;;;;;;755550;184;920409;-57
2022/09/07 06:34:46;;;;;;;25.23;15.68;;;;;;;;;;749863;185;919710;-57
2022/09/07 06:37:12;;;;;;;21.70;15.80;;;;;;;;;;757494;184;920158;-57
2022/09/07 06:39:38;;;;;;;22.47;14.17;;;;;;;;;;759805;184;625150;-57
2022/09/07 06:42:04;;;;;;;25.13;16.43;;;;;;;;;;756128;182;917959;-57
2022/09/07 06:44:30;;;;;;;19.50;12.20;;;;;;;;;;757848;184;934299;-56
2022/09/07 06:46:56;;;;;;;18.90;14.57;;;;;;;;;;753075;184;816186;-57
2022/09/07 06:49:22;;;;;;;25.73;14.40;;;;;;;;;;752873;184;871768;-57
2022/09/07 06:51:48;;;;;;;23.45;15.30;;;;;;;;;;756908;184;922658;-57
2022/09/07 06:54:14;;;;;;;21.73;14.97;;;;;;;;;;767435;182;921592;-57
2022/09/07 06:56:40;;;;;;;18.70;15.30;;;;;;;;;;747905;185;921700;-57
2022/09/07 06:59:06;;;;;;;30.85;15.90;;;;;;;;;;754699;184;919544;-57
2022/09/07 07:01:32;;;;;;;18.27;15.50;;;;;;;;;;761687;184;815876;-57
2022/09/07 07:03:58;;;;;;;21.37;14.40;;;;;;;;;;753682;183;840101;-57
2022/09/07 07:06:23;;;;;;;19.83;14.57;;;;;;;;;;750258;184;904885;-57
2022/09/07 07:08:49;;;;;;;16.27;13.37;;;;;;;;;;755962;184;817881;-57
2022/09/07 07:11:15;;;;;;;24.60;15.13;;;;;;;;;;753975;184;919650;-57
2022/09/07 07:13:41;;;;;;;17.67;15.00;;;;;;;;;;750789;184;994463;-58
2022/09/07 07:16:09;;;;;;;23.17;14.77;;;;;;;;;;758163;184;813108;-57
2022/09/07 07:18:34;;;;;;;22.40;15.40;;;;;;;;;;756428;184;816094;-57
2022/09/07 07:21:00;;;;;;;21.07;14.77;;;;;;;;;;758810;184;921724;-57
2022/09/07 07:23:26;;;;;;;21.90;14.27;;;;;;;;;;759188;184;634350;-57
2022/09/07 07:25:52;;;;;;;25.43;13.83;;;;;;;;;;758933;185;900919;-57
2022/09/07 07:28:18;;;;;;;26.27;15.53;;;;;;;;;;750589;182;911619;-56
2022/09/07 07:30:44;;;;;;;20.30;13.23;;;;;;;;;;758960;184;918489;-57
2022/09/07 07:33:10;;;;;;;19.17;12.77;;;;;;;;;;753001;186;919713;-58
2022/09/07 07:35:35;;;;;;;19.10;13.20;;;;;;;;;;754077;184;919832;-57
2022/09/07 07:38:02;;;;;;;16.87;12.83;;;;;;;;;;752132;184;919346;-58
2022/09/07 07:40:27;;;;;;;20.20;14.17;;;;;;;;;;753063;185;919581;-57
2022/09/07 07:42:53;;;;;;;22.47;13.50;;;;;;;;;;755982;184;945217;-57
2022/09/07 07:45:19;;;;;;;21.43;14.23;;;;;;;;;;752664;182;918546;-57
2022/09/07 07:47:45;;;;;;;18.77;12.90;;;;;;;;;;752382;184;914877;-57
2022/09/07 07:50:11;;;;;;;18.03;12.57;;;;;;;;;;756980;185;912664;-58
2022/09/07 07:52:37;;;;;;;19.20;12.77;;;;;;;;;;751711;181;915947;-58
2022/09/07 07:55:03;;;;;;;15.03;12.07;;;;;;;;;;755864;184;923429;-58
2022/09/07 07:57:29;;;;;;;17.80;12.20;;;;;;;;;;752287;185;919105;-57
2022/09/07 07:59:54;;;;;;;19.00;13.30;;;;;;;;;;751359;184;919705;-58
2022/09/07 08:02:20;;;;;;;20.10;13.27;;;;;;;;;;754609;184;918985;-57
2022/09/07 08:04:46;;;;;;;22.73;14.30;;;;;;;;;;762060;184;815407;-54
2022/09/07 08:07:12;;;;;;;21.35;14.02;;;;;;;;;;755444;182;919098;-55
2022/09/07 08:09:39;;;;;;;17.90;13.63;;;;;;;;;;753788;185;919694;-56
2022/09/07 08:12:05;;;;;;;18.50;13.20;;;;;;;;;;747274;185;920241;-55
2022/09/07 08:14:31;;;;;;;19.40;13.10;;;;;;;;;;760172;183;914141;-55
2022/09/07 08:16:56;;;;;;;23.33;14.20;;;;;;;;;;753929;184;919944;-55
2022/09/07 08:19:22;;;;;;;21.67;14.32;;;;;;;;;;755515;182;919175;-55
2022/09/07 08:21:48;;;;;;;15.17;12.23;;;;;;;;;;756896;184;919932;-54
2022/09/07 08:24:14;;;;;;;22.40;12.53;;;;;;;;;;737849;187;919551;-55
2022/09/07 08:26:40;;;;;;;20.63;13.20;;;;;;;;;;747359;185;916057;-55
2022/09/07 08:29:06;;;;;;;16.00;11.40;;;;;;;;;;752724;182;913521;-55
2022/09/07 08:31:31;;;;;;;20.60;12.37;;;;;;;;;;757487;182;922037;-55
2022/09/07 08:33:57;;;;;;;16.90;11.70;;;;;;;;;;759200;184;920122;-55
2022/09/07 08:36:23;;;;;;;17.80;11.97;;;;;;;;;;756229;184;907564;-55
2022/09/07 08:38:49;;;;;;;12.60;9.57;;;;;;;;;;760536;182;714410;-55
2022/09/07 08:41:26;;;;;;;13.60;11.13;;;;;;;;;;752177;185;920842;-56
2022/09/07 08:43:52;;;;;;;14.70;10.85;;;;;;;;;;748674;182;919390;-62
2022/09/07 08:46:19;;;;;;;14.90;9.17;;;;;;;;;;752621;185;919212;-57
2022/09/07 08:48:45;;;;;;;14.63;10.37;;;;;;;;;;754462;185;843873;-57
2022/09/07 08:51:11;;;;;;;14.30;10.23;;;;;;;;;;753715;184;918980;-57
2022/09/07 08:53:37;;;;;;;12.18;9.35;;;;;;;;;;755183;184;917956;-58
2022/09/07 08:56:03;;;;;;;14.20;9.70;;;;;;;;;;759190;184;920772;-57
2022/09/07 08:58:45;;;;;;;15.40;10.57;;;;;;;;;;751500;182;917700;-57
2022/09/07 09:01:12;;;;;;;12.17;9.47;;;;;;;;;;755076;184;917812;-57
2022/09/07 09:03:38;;;;;;;14.90;10.20;;;;;;;;;;749988;185;900662;-57
2022/09/07 09:06:04;;;;;;;13.97;9.57;;;;;;;;;;758158;184;873516;-57
2022/09/07 09:08:30;;;;;;;31.40;10.20;;;;;;;;;;754199;184;919305;-58
2022/09/07 09:10:56;;;;;;;14.00;9.90;;;;;;;;;;753844;184;915161;-56
2022/09/07 09:13:41;;;;;;;14.57;9.87;;;;;;;;;;752140;184;924013;-58
2022/09/07 09:16:07;;;;;;;18.17;9.60;;;;;;;;;;756391;182;922090;-58
2022/09/07 09:18:33;;;;;;;9.77;8.20;;;;;;;;;;751198;184;919020;-58
2022/09/07 09:20:59;;;;;;;13.77;8.53;;;;;;;;;;755401;184;822769;-58
2022/09/07 09:23:25;;;;;;;11.83;8.97;;;;;;;;;;749830;185;827189;-57
2022/09/07 09:25:51;;;;;;;12.90;9.93;;;;;;;;;;757994;185;813605;-58
2022/09/07 09:28:17;;;;;;;11.33;9.50;;;;;;;;;;759399;184;918820;-57
2022/09/07 09:30:43;;;;;;;17.77;8.90;;;;;;;;;;753511;184;919628;-57
2022/09/07 09:33:12;;;;;;;12.23;8.15;;;;;;;;;;756910;182;928900;-57
2022/09/07 09:35:38;;;;;;;10.30;7.97;;;;;;;;;;767699;180;919373;-57
2022/09/07 09:38:03;;;;;;;10.27;7.80;;;;;;;;;;748520;180;919708;-57
2022/09/07 09:40:29;;;;;;;8.88;6.95;;;;;;;;;;747744;182;911045;-57
2022/09/07 09:42:58;;;;;;;12.90;9.10;;;;;;;;;;761057;184;815274;-57
2022/09/07 09:45:24;;;;;;;12.90;8.00;;;;;;;;;;752666;184;919280;-57
2022/09/07 09:47:50;;;;;;;11.57;7.83;;;;;;;;;;753562;184;915868;-57
2022/09/07 09:50:17;;;;;;;13.77;7.80;;;;;;;;;;752837;185;816938;-57
2022/09/07 09:52:42;;;;;;;11.80;6.83;;;;;;;;;;754311;183;919515;-56
2022/09/07 09:55:08;;;;;;;9.23;5.70;;;;;;;;;;749482;185;919385;-57
2022/09/07 09:57:40;;;;;;;10.43;5.70;;;;;;;;;;749166;185;920205;-57
2022/09/07 10:00:06;;;;;;;10.33;7.53;;;;;;;;;;756669;184;919476;-57
2022/09/07 10:02:32;;;;;;;10.47;7.60;;;;;;;;;;748894;184;918604;-57
2022/09/07 10:04:58;;;;;;;8.27;7.13;;;;;;;;;;755471;184;920564;-58
2022/09/07 10:07:25;;;;;;;8.97;6.23;;;;;;;;;;755792;185;915975;-57
2022/09/07 10:09:50;;;;;;;9.70;7.27;;;;;;;;;;756375;184;919013;-58
2022/09/07 10:12:35;;;;;;;9.73;6.93;;;;;;;;;;750903;183;918838;-57
2022/09/07 10:15:01;;;;;;;7.93;7.13;;;;;;;;;;756554;184;919394;-57
2022/09/07 10:17:28;;;;;;;9.17;7.60;;;;;;;;;;750342;185;853421;-56
2022/09/07 10:19:53;;;;;;;11.33;7.50;;;;;;;;;;759206;181;915038;-57
2022/09/07 10:22:19;;;;;;;7.80;7.00;;;;;;;;;;752057;184;919355;-57
2022/09/07 10:24:45;;;;;;;8.33;6.63;;;;;;;;;;753182;184;925577;-57
2022/09/07 10:27:26;;;;;;;8.00;6.83;;;;;;;;;;754565;182;875547;-57
2022/09/07 10:29:52;;;;;;;11.17;7.63;;;;;;;;;;756686;184;920778;-57
2022/09/07 10:32:22;;;;;;;9.20;7.50;;;;;;;;;;750369;181;917207;-56
2022/09/07 10:35:05;;;;;;;8.03;7.23;;;;;;;;;;757134;184;629218;-58
2022/09/07 10:37:46;;;;;;;11.70;7.20;;;;;;;;;;762589;181;624110;-56
2022/09/07 10:40:16;;;;;;;13.73;8.03;;;;;;;;;;751262;184;915663;-56
2022/09/07 10:42:42;;;;;;;9.73;8.40;;;;;;;;;;754776;182;921419;-57
2022/09/07 10:45:23;;;;;;;9.13;7.50;;;;;;;;;;755576;184;812866;-59
2022/09/07 10:47:49;;;;;;;11.13;8.00;;;;;;;;;;761806;184;880491;-57
2022/09/07 10:50:30;;;;;;;9.37;7.27;;;;;;;;;;754744;184;919617;-57
2022/09/07 10:52:59;;;;;;;15.63;7.80;;;;;;;;;;752443;184;916353;-56
2022/09/07 10:55:33;;;;;;;12.40;7.33;;;;;;;;;;748012;184;922368;-56
2022/09/07 10:58:15;;;;;;;9.43;7.37;;;;;;;;;;754623;185;917453;-58
2022/09/07 11:00:41;;;;;;;9.90;7.40;;;;;;;;;;755050;184;920043;-57
2022/09/07 11:03:09;;;;;;;7.20;6.33;;;;;;;;;;754619;185;919652;-58
2022/09/07 11:05:37;;;;;;;11.17;8.17;;;;;;;;;;756382;184;920315;-58
2022/09/07 11:08:13;;;;;;;9.07;7.40;;;;;;;;;;749510;184;920022;-57
2022/09/07 11:10:49;;;;;;;8.35;7.07;;;;;;;;;;755880;182;914471;-57
2022/09/07 11:13:17;;;;;;;7.73;6.93;;;;;;;;;;755193;184;821003;-58
2022/09/07 11:15:43;;;;;;;7.53;6.80;;;;;;;;;;760865;184;627162;-58
2022/09/07 11:18:12;;;;;;;8.07;7.13;;;;;;;;;;748659;185;919333;-57
2022/09/07 11:20:39;;;;;;;9.77;7.90;;;;;;;;;;758993;184;912923;-59
2022/09/07 11:23:21;;;;;;;9.40;7.83;;;;;;;;;;760200;184;813550;-62
2022/09/07 11:25:53;;;;;;;8.50;6.57;;;;;;;;;;760831;183;628532;-57
2022/09/07 11:28:27;;;;;;;6.90;6.20;;;;;;;;;;759696;185;919507;-57
2022/09/07 11:30:56;;;;;;;7.80;6.50;;;;;;;;;;748112;185;923499;-58
2022/09/07 11:33:18;;;;;;;9.40;7.10;;;;;;;;;;754134;184;920988;-58
2022/09/07 11:35:44;;;;;;;7.63;6.83;;;;;;;;;;753514;184;919257;-57
2022/09/07 11:38:13;;;;;;;8.40;6.70;;;;;;;;;;756750;184;920856;-57
2022/09/07 11:40:41;;;;;;;7.07;6.37;;;;;;;;;;755754;184;918409;-57
2022/09/07 11:43:12;;;;;;;6.93;6.10;;;;;;;;;;746583;184;921160;-57
2022/09/07 11:45:38;;;;;;;7.57;6.87;;;;;;;;;;755978;183;921294;-57
2022/09/07 11:48:20;;;;;;;6.30;5.70;;;;;;;;;;754872;182;919283;-58
2022/09/07 11:50:46;;;;;;;7.13;6.30;;;;;;;;;;755470;182;818387;-57
2022/09/07 11:53:27;;;;;;;7.57;6.10;;;;;;;;;;753281;184;920049;-57
2022/09/07 11:55:53;;;;;;;7.90;7.10;;;;;;;;;;757608;184;907977;-58
2022/09/07 11:58:35;;;;;;;5.93;5.33;;;;;;;;;;761141;184;899432;-58
2022/09/07 12:01:01;;;;;;;7.67;6.73;;;;;;;;;;754310;183;822234;-58
2022/09/07 12:03:30;;;;;;;9.23;6.23;;;;;;;;;;746943;184;919665;-58
2022/09/07 12:06:01;;;;;;;6.77;5.53;;;;;;;;;;753523;184;919573;-58
2022/09/07 12:08:31;;;;;;;9.75;5.32;;;;;;;;;;748152;184;918753;-58
2022/09/07 12:11:03;;;;;;;10.65;5.95;;;;;;;;;;754132;185;921010;-57
2022/09/07 12:13:30;;;;;;;5.87;5.27;;;;;;;;;;768583;182;913652;-58
2022/09/07 12:16:01;;;;;;;5.90;5.30;;;;;;;;;;758777;184;819101;-57
2022/09/07 12:18:30;;;;;;;6.43;4.80;;;;;;;;;;755578;185;912874;-58
2022/09/07 12:20:56;;;;;;;7.20;6.10;;;;;;;;;;749271;185;918963;-57
2022/09/07 12:23:24;;;;;;;9.30;6.07;;;;;;;;;;761192;184;816886;-57
2022/09/07 12:25:49;;;;;;;7.33;5.73;;;;;;;;;;752079;184;915558;-58
2022/09/07 12:28:16;;;;;;;6.23;5.63;;;;;;;;;;757626;184;915330;-57
2022/09/07 12:30:48;;;;;;;6.93;5.93;;;;;;;;;;752830;185;916681;-58
2022/09/07 12:33:18;;;;;;;9.53;6.20;;;;;;;;;;756489;184;954286;-57
2022/09/07 12:35:44;;;;;;;6.30;5.70;;;;;;;;;;753211;185;920196;-57
2022/09/07 12:38:27;;;;;;;8.13;5.40;;;;;;;;;;754394;184;913548;-58
2022/09/07 12:40:59;;;;;;;7.70;6.00;;;;;;;;;;757081;184;848549;-57
2022/09/07 12:43:30;;;;;;;6.80;6.07;;;;;;;;;;755376;184;918515;-59
2022/09/07 12:45:56;;;;;;;6.70;5.77;;;;;;;;;;754665;184;919874;-57
2022/09/07 12:48:27;;;;;;;6.00;5.40;;;;;;;;;;755585;181;882055;-57
2022/09/07 12:51:08;;;;;;;10.67;5.40;;;;;;;;;;753020;184;918421;-57
2022/09/07 12:53:34;;;;;;;5.87;4.20;;;;;;;;;;750585;184;919762;-58
2022/09/07 12:56:05;;;;;;;5.70;4.80;;;;;;;;;;755436;185;918473;-58
2022/09/07 12:58:37;;;;;;;10.97;5.10;;;;;;;;;;759295;183;914864;-58
2022/09/07 13:01:04;;;;;;;23.83;6.20;;;;;;;;;;757206;183;920618;-57
2022/09/07 13:03:46;;;;;;;7.13;5.30;;;;;;;;;;751976;184;883799;-57
2022/09/07 13:06:15;;;;;;;4.70;4.03;;;;;;;;;;754329;184;917519;-58
2022/09/07 13:08:46;;;;;;;5.10;4.60;;;;;;;;;;749700;184;922417;-58
2022/09/07 13:11:18;;;;;;;6.53;4.90;;;;;;;;;;764870;180;926116;-58
2022/09/07 13:13:58;;;;;;;5.23;4.73;;;;;;;;;;760252;184;630978;-57
2022/09/07 13:16:24;;;;;;;5.13;4.50;;;;;;;;;;757231;184;818820;-58
2022/09/07 13:18:50;;;;;;;6.67;5.03;;;;;;;;;;746869;182;919661;-57
2022/09/07 13:21:23;;;;;;;6.03;4.30;;;;;;;;;;757195;184;816262;-58
2022/09/07 13:23:55;;;;;;;6.67;4.53;;;;;;;;;;757095;185;813416;-58
2022/09/07 13:26:26;;;;;;;7.87;4.30;;;;;;;;;;755189;181;919751;-58
2022/09/07 13:28:52;;;;;;;5.20;4.70;;;;;;;;;;749108;185;912253;-58
2022/09/07 13:31:37;;;;;;;5.37;4.60;;;;;;;;;;747379;185;935212;-58
2022/09/07 13:34:03;;;;;;;5.00;4.07;;;;;;;;;;747241;184;919175;-58
2022/09/07 13:36:30;;;;;;;4.67;4.03;;;;;;;;;;752483;185;920295;-57
2022/09/07 13:38:56;;;;;;;6.87;4.40;;;;;;;;;;753482;182;919060;-58
2022/09/07 13:41:22;;;;;;;5.77;5.13;;;;;;;;;;751301;184;920467;-57
2022/09/07 13:43:48;;;;;;;4.95;4.45;;;;;;;;;;754710;184;939917;-58
2022/09/07 13:46:21;;;;;;;5.73;5.13;;;;;;;;;;754890;183;861687;-57
2022/09/07 13:48:47;;;;;;;6.97;5.17;;;;;;;;;;746835;185;918525;-58
2022/09/07 13:51:19;;;;;;;5.40;4.30;;;;;;;;;;749795;185;909750;-57
2022/09/07 13:53:48;;;;;;;5.27;4.73;;;;;;;;;;752612;184;919053;-58
2022/09/07 13:56:20;;;;;;;7.07;4.37;;;;;;;;;;761727;183;919126;-57
2022/09/07 13:58:45;;;;;;;5.57;5.00;;;;;;;;;;756708;181;815383;-57
2022/09/07 14:01:20;;;;;;;5.10;3.60;;;;;;;;;;752986;184;920901;-57
2022/09/07 14:03:47;;;;;;;5.37;4.20;;;;;;;;;;748370;185;919164;-58
2022/09/07 14:06:13;;;;;;;7.00;4.77;;;;;;;;;;758455;184;887435;-57
2022/09/07 14:08:40;;;;;;;5.60;4.60;;;;;;;;;;758778;184;714625;-58
2022/09/07 14:11:05;;;;;;;4.63;4.07;;;;;;;;;;756273;182;916079;-57
2022/09/07 14:13:31;;;;;;;7.60;5.00;;;;;;;;;;755613;183;817028;-57